Time;durP1;ratioP1;P1;durP2;ratioP2;P2;SDS_P1;SDS_P2;PMS_P1;PMS_P2;Temp;Humidity;BMP_temperature;BMP_pressure;BME280_temperature;BME280_humidity;BME280_pressure;Samples;Min_cycle;Max_cycle;Signal;HPM_P1;HPM_P2
2023/01/09 00:01:18;;;;;;;0.95;0.80;;;6.60;99.90;;;;;;5038821;28;20045;-70
2023/01/09 00:03:44;;;;;;;4.85;0.93;;;6.60;99.90;;;;;;5038814;28;20079;-70
2023/01/09 00:06:10;;;;;;;1.45;1.05;;;6.60;99.90;;;;;;5038754;28;20079;-70
2023/01/09 00:08:35;;;;;;;3.63;0.70;;;6.60;99.90;;;;;;5038898;28;20480;-70
2023/01/09 00:11:01;;;;;;;1.85;0.85;;;6.70;99.90;;;;;;5038631;28;20151;-70
2023/01/09 00:13:27;;;;;;;3.22;1.70;;;6.70;99.90;;;;;;5038692;28;20048;-70
2023/01/09 00:15:52;;;;;;;2.05;1.10;;;6.80;99.90;;;;;;5021992;28;20033;-70
2023/01/09 00:18:18;;;;;;;1.90;0.90;;;6.80;99.90;;;;;;5038516;28;20123;-70
2023/01/09 00:20:43;;;;;;;1.75;0.68;;;6.80;99.90;;;;;;5056573;28;20111;-70
2023/01/09 00:23:09;;;;;;;1.35;0.77;;;7.40;99.90;;;;;;5038422;28;20041;-70
2023/01/09 00:25:35;;;;;;;0.93;0.52;;;6.90;99.90;;;;;;5038428;28;20437;-70
2023/01/09 00:28:01;;;;;;;2.03;0.63;;;6.90;99.90;;;;;;5038607;28;20049;-70
2023/01/09 00:30:27;;;;;;;1.02;0.57;;;7.10;99.90;;;;;;5038252;28;20036;-70
2023/01/09 00:32:54;;;;;;;1.48;0.55;;;7.10;99.90;;;;;;5038231;28;20045;-71
2023/01/09 00:35:22;;;;;;;1.48;0.73;;;7.20;99.90;;;;;;5021573;28;20080;-70
2023/01/09 00:37:48;;;;;;;4.53;0.57;;;7.20;99.90;;;;;;5056220;28;20068;-70
2023/01/09 00:40:15;;;;;;;1.10;0.52;;;7.20;99.90;;;;;;5038398;28;20477;-70
2023/01/09 00:42:43;;;;;;;1.85;0.50;;;7.30;99.90;;;;;;5038097;28;20033;-70
2023/01/09 00:45:15;;;;;;;3.40;1.00;;;7.30;99.90;;;;;;5021614;28;20083;-70
2023/01/09 00:47:48;;;;;;;1.55;0.77;;;7.30;99.90;;;;;;5038146;28;20055;-70
2023/01/09 00:50:19;;;;;;;2.05;0.80;;;7.40;99.90;;;;;;5056071;28;20404;-69
2023/01/09 00:52:46;;;;;;;0.70;0.57;;;7.40;99.90;;;;;;5056098;28;20415;-70
2023/01/09 00:55:13;;;;;;;1.27;0.77;;;7.40;99.90;;;;;;5055955;28;20394;-69
2023/01/09 00:57:39;;;;;;;1.30;0.75;;;7.40;99.90;;;;;;5037784;28;20510;-69
2023/01/09 01:00:06;;;;;;;2.67;0.73;;;7.30;99.90;;;;;;5055864;28;20416;-69
2023/01/09 01:02:31;;;;;;;3.05;0.82;;;7.20;99.90;;;;;;5037919;28;20598;-69
2023/01/09 01:07:42;;;;;;;1.38;0.55;;;7.10;99.90;;;;;;5037517;28;20045;-69
2023/01/09 01:10:20;;;;;;;3.03;0.73;;;7.10;99.90;;;;;;5020525;28;20148;-69
2023/01/09 01:12:46;;;;;;;2.67;0.47;;;7.10;99.90;;;;;;5055466;28;20107;-69
2023/01/09 01:15:13;;;;;;;1.15;0.63;;;7.00;99.90;;;;;;5055217;28;20045;-69
2023/01/09 01:17:39;;;;;;;0.60;0.30;;;6.90;99.90;;;;;;5037299;28;20048;-69
2023/01/09 01:20:08;;;;;;;0.45;0.40;;;6.90;99.90;;;;;;5037679;28;20045;-69
2023/01/09 01:22:34;;;;;;;0.40;0.40;;;6.90;99.90;;;;;;5037550;28;20132;-69
2023/01/09 01:24:59;;;;;;;1.05;0.55;;;6.80;99.90;;;;;;5055060;28;20120;-69
2023/01/09 01:27:27;;;;;;;0.45;0.30;;;6.80;99.90;;;;;;5037269;28;20045;-69
2023/01/09 01:29:52;;;;;;;1.15;0.40;;;6.70;99.90;;;;;;5037276;28;20064;-69
2023/01/09 01:32:18;;;;;;;0.43;0.32;;;6.70;99.90;;;;;;5036952;28;20049;-69
2023/01/09 01:34:44;;;;;;;0.52;0.38;;;6.90;99.90;;;;;;5037322;28;20373;-69
2023/01/09 01:37:09;;;;;;;0.40;0.40;;;6.60;99.90;;;;;;5037150;28;20492;-69
2023/01/09 01:39:35;;;;;;;0.75;0.20;;;6.50;99.90;;;;;;5037245;28;20119;-69
2023/01/09 01:42:05;;;;;;;0.20;0.20;;;6.50;99.90;;;;;;5055109;28;20040;-69
2023/01/09 01:44:58;;;;;;;0.40;0.40;;;6.50;99.90;;;;;;5036904;28;20041;-69
2023/01/09 01:47:41;;;;;;;1.55;0.30;;;6.50;99.90;;;;;;5054737;28;20045;-70
2023/01/09 01:50:26;;;;;;;0.10;0.10;;;6.40;99.90;;;;;;5037113;28;20037;-69
2023/01/09 01:53:02;;;;;;;0.30;0.20;;;6.40;99.90;;;;;;5054131;28;20048;-69
2023/01/09 01:55:28;;;;;;;0.20;0.20;;;6.40;99.90;;;;;;5036740;28;20131;-69
2023/01/09 01:58:00;;;;;;;0.20;0.20;;;6.40;99.90;;;;;;5036643;28;20121;-69
2023/01/09 02:00:31;;;;;;;0.20;0.20;;;6.30;99.90;;;;;;5036620;28;20117;-69
2023/01/09 02:02:58;;;;;;;1.00;0.30;;;6.30;99.90;;;;;;5036926;28;20072;-69
2023/01/09 02:05:23;;;;;;;0.40;0.30;;;6.40;99.90;;;;;;5054615;28;20068;-69
2023/01/09 02:07:49;;;;;;;0.98;0.43;;;6.30;99.90;;;;;;5054645;28;20521;-69
2023/01/09 02:10:14;;;;;;;0.52;0.20;;;6.40;99.90;;;;;;5036397;28;20073;-69
2023/01/09 02:12:40;;;;;;;1.10;0.40;;;6.40;99.90;;;;;;5036627;28;20045;-69
2023/01/09 02:15:09;;;;;;;0.75;0.30;;;6.40;99.90;;;;;;5054397;28;20076;-69
2023/01/09 02:17:35;;;;;;;0.47;0.40;;;6.50;99.90;;;;;;5054307;28;20159;-69
2023/01/09 02:20:25;;;;;;;0.52;0.47;;;6.50;99.90;;;;;;5036281;28;20504;-70
2023/01/09 02:23:18;;;;;;;0.55;0.50;;;6.50;99.90;;;;;;5054318;28;20036;-69
2023/01/09 02:26:02;;;;;;;3.00;0.60;;;6.50;99.90;;;;;;5019633;28;20041;-69
2023/01/09 02:29:06;;;;;;;2.25;0.68;;;6.50;99.90;;;;;;5036061;28;20041;-69
2023/01/09 02:31:52;;;;;;;0.43;0.32;;;6.40;99.90;;;;;;5019511;28;20056;-69
2023/01/09 02:34:35;;;;;;;0.82;0.50;;;6.50;99.90;;;;;;5035863;28;20551;-69
2023/01/09 02:37:07;;;;;;;1.10;0.70;;;6.40;99.90;;;;;;5035987;28;20511;-69
2023/01/09 02:39:35;;;;;;;1.55;0.70;;;6.40;99.90;;;;;;5036131;28;20033;-69
2023/01/09 02:42:25;;;;;;;0.75;0.50;;;6.40;99.90;;;;;;5035826;28;20116;-69
2023/01/09 02:44:51;;;;;;;1.02;0.52;;;6.40;99.90;;;;;;5026379;28;20052;-69
2023/01/09 02:47:17;;;;;;;1.20;0.70;;;6.30;99.90;;;;;;5053836;28;20498;-69
2023/01/09 02:49:53;;;;;;;2.75;0.70;;;6.40;99.90;;;;;;5052627;28;20049;-69
2023/01/09 02:52:56;;;;;;;0.93;0.50;;;6.30;99.90;;;;;;5053768;28;20045;-69
2023/01/09 02:55:33;;;;;;;1.42;0.60;;;6.30;99.90;;;;;;5019142;28;20408;-69
2023/01/09 02:58:32;;;;;;;1.13;1.02;;;6.30;99.90;;;;;;5035534;28;20091;-69
2023/01/09 03:01:22;;;;;;;2.90;0.80;;;6.30;99.90;;;;;;4996903;28;20083;-69
2023/01/09 03:06:57;;;;;;;0.93;0.60;;;6.20;99.90;;;;;;4992147;28;20054;-66
2023/01/09 03:09:26;;;;;;;2.33;1.08;;;6.10;99.90;;;;;;4976479;28;20132;-66
2023/01/09 03:12:28;;;;;;;2.20;1.00;;;6.10;99.90;;;;;;4976510;28;20038;-66
2023/01/09 03:14:56;;;;;;;;;;;6.10;99.90;;;;;;4991201;28;20073;-66
2023/01/09 03:17:30;;;;;;;1.60;0.85;;;6.00;99.90;;;;;;4976360;28;19921;-66
2023/01/09 03:19:58;;;;;;;1.60;0.75;;;6.00;99.90;;;;;;4993757;28;20101;-66
2023/01/09 03:22:24;;;;;;;1.00;0.80;;;6.00;99.90;;;;;;4993962;28;20034;-66
2023/01/09 03:24:49;;;;;;;4.32;1.10;;;6.00;99.90;;;;;;4993990;28;20169;-66
2023/01/09 03:27:15;;;;;;;1.48;0.90;;;5.90;99.90;;;;;;4993980;28;20140;-66
2023/01/09 03:29:40;;;;;;;2.53;1.15;;;5.90;99.90;;;;;;4976237;28;20057;-66
2023/01/09 03:32:06;;;;;;;1.80;0.90;;;5.90;99.90;;;;;;4976433;28;20433;-66
2023/01/09 03:34:32;;;;;;;1.75;0.85;;;5.90;99.90;;;;;;4993876;28;20042;-66
2023/01/09 03:36:57;;;;;;;1.00;0.63;;;5.80;99.90;;;;;;4976150;28;20046;-66
2023/01/09 03:39:23;;;;;;;2.05;0.98;;;5.80;99.90;;;;;;4976120;28;20509;-66
2023/01/09 03:41:48;;;;;;;1.80;0.80;;;5.80;99.90;;;;;;4993794;28;20038;-66
2023/01/09 03:44:14;;;;;;;1.65;0.98;;;5.80;99.90;;;;;;4993779;28;20038;-66
2023/01/09 03:46:40;;;;;;;1.95;0.77;;;5.80;99.90;;;;;;4993514;28;20517;-66
2023/01/09 03:49:05;;;;;;;3.42;1.00;;;5.70;99.90;;;;;;4976316;28;20070;-66
2023/01/09 03:51:31;;;;;;;1.05;0.90;;;5.70;99.90;;;;;;4993700;28;20046;-66
2023/01/09 03:53:56;;;;;;;2.45;1.25;;;5.70;99.90;;;;;;4993694;28;20042;-66
2023/01/09 03:56:22;;;;;;;2.35;0.88;;;5.60;99.90;;;;;;4993565;28;20073;-66
2023/01/09 03:58:49;;;;;;;6.78;1.35;;;5.60;99.90;;;;;;4993684;28;20034;-66
2023/01/09 04:01:14;;;;;;;1.73;1.00;;;5.50;99.90;;;;;;4975941;28;20038;-66
2023/01/09 04:03:40;;;;;;;2.05;0.90;;;5.60;99.90;;;;;;4975906;28;20047;-66
2023/01/09 04:06:06;;;;;;;2.83;1.00;;;5.50;99.90;;;;;;4992046;28;20406;-66
2023/01/09 04:08:32;;;;;;;4.93;1.10;;;5.60;99.90;;;;;;4993547;28;20041;-66
2023/01/09 04:10:57;;;;;;;3.30;1.15;;;5.50;99.90;;;;;;4975908;28;20121;-66
2023/01/09 04:13:23;;;;;;;1.90;1.02;;;5.40;99.90;;;;;;4993455;28;20396;-66
2023/01/09 04:15:49;;;;;;;2.08;1.05;;;5.40;99.90;;;;;;4993521;28;20545;-66
2023/01/09 04:18:15;;;;;;;2.95;1.20;;;5.40;99.90;;;;;;4993370;28;20445;-66
2023/01/09 04:20:41;;;;;;;3.80;1.10;;;5.40;99.90;;;;;;4975694;28;20046;-66
2023/01/09 04:23:06;;;;;;;1.60;0.60;;;5.40;99.90;;;;;;4975829;28;20038;-66
2023/01/09 04:25:32;;;;;;;2.45;1.05;;;5.70;99.90;;;;;;4993153;28;20478;-66
2023/01/09 04:27:58;;;;;;;4.63;1.02;;;5.30;99.90;;;;;;4993177;28;20085;-66
2023/01/09 04:30:24;;;;;;;2.08;1.40;;;5.30;99.90;;;;;;4993314;28;20477;-66
2023/01/09 04:32:50;;;;;;;2.65;1.20;;;5.30;99.90;;;;;;4993094;28;20069;-66
2023/01/09 04:35:17;;;;;;;2.60;1.20;;;5.30;99.90;;;;;;4992973;28;20042;-66
2023/01/09 04:37:44;;;;;;;3.58;1.30;;;5.20;99.90;;;;;;4975938;28;20050;-66
2023/01/09 04:40:10;;;;;;;2.78;1.48;;;5.20;99.90;;;;;;4993317;28;20577;-66
2023/01/09 04:42:37;;;;;;;4.72;1.48;;;5.20;99.90;;;;;;4992843;28;20082;-66
2023/01/09 04:45:04;;;;;;;2.13;1.00;;;5.10;99.90;;;;;;4977428;28;20046;-66
2023/01/09 04:47:32;;;;;;;5.18;1.85;;;5.10;99.90;;;;;;4996495;28;20042;-66
2023/01/09 04:49:58;;;;;;;2.55;1.50;;;5.10;99.90;;;;;;4979354;28;20042;-66
2023/01/09 04:52:24;;;;;;;3.95;1.92;;;5.10;99.90;;;;;;4996408;28;20038;-66
2023/01/09 04:54:50;;;;;;;2.95;1.88;;;5.10;99.90;;;;;;4995444;28;20050;-66
2023/01/09 04:57:16;;;;;;;4.07;2.38;;;5.10;99.90;;;;;;4978915;28;20043;-66
2023/01/09 04:59:41;;;;;;;3.08;1.65;;;5.10;99.90;;;;;;4978972;28;20042;-66
2023/01/09 05:02:07;;;;;;;3.58;2.15;;;5.00;99.90;;;;;;4996564;28;20444;-66
2023/01/09 05:04:32;;;;;;;6.22;2.10;;;5.10;99.90;;;;;;4996134;28;20057;-66
2023/01/09 05:06:58;;;;;;;3.70;1.98;;;5.10;99.90;;;;;;4978669;28;20050;-66
2023/01/09 05:09:24;;;;;;;5.07;3.03;;;5.10;99.90;;;;;;4996171;28;20489;-66
2023/01/09 05:11:49;;;;;;;5.50;2.95;;;5.20;99.90;;;;;;4978690;28;20050;-66
2023/01/09 05:14:15;;;;;;;4.43;2.50;;;5.20;99.90;;;;;;4978858;28;20037;-66
2023/01/09 05:16:40;;;;;;;4.68;2.80;;;5.20;99.90;;;;;;4996246;28;20038;-66
2023/01/09 05:19:06;;;;;;;6.93;3.53;;;5.20;99.90;;;;;;4996288;28;20038;-66
2023/01/09 05:21:32;;;;;;;5.10;3.15;;;5.20;99.90;;;;;;4978816;28;20128;-66
2023/01/09 05:23:57;;;;;;;6.70;3.72;;;5.30;99.90;;;;;;4995847;28;20034;-66
2023/01/09 05:26:23;;;;;;;9.05;3.40;;;5.30;99.90;;;;;;4978389;28;20046;-66
2023/01/09 05:28:53;;;;;;;9.00;3.85;;;5.30;99.90;;;;;;4995967;28;20118;-66
2023/01/09 05:31:19;;;;;;;7.43;4.38;;;5.30;99.90;;;;;;4995984;28;20444;-66
2023/01/09 05:33:45;;;;;;;7.28;4.38;;;5.30;99.90;;;;;;4995684;28;20070;-65
2023/01/09 05:36:11;;;;;;;7.38;3.42;;;5.40;99.90;;;;;;4994715;28;20527;-66
2023/01/09 05:38:37;;;;;;;7.88;5.07;;;5.30;99.90;;;;;;4978362;28;20042;-66
2023/01/09 05:41:03;;;;;;;6.90;3.67;;;5.40;99.90;;;;;;4978030;28;20073;-68
2023/01/09 05:43:29;;;;;;;7.15;4.07;;;5.50;99.90;;;;;;4962216;28;20486;-67
2023/01/09 05:45:54;;;;;;;9.43;4.45;;;5.50;99.90;;;;;;4995734;28;20041;-66
2023/01/09 05:48:20;;;;;;;9.18;4.93;;;5.50;99.90;;;;;;4978039;28;20493;-67
2023/01/09 05:50:46;;;;;;;8.13;5.22;;;7.00;99.90;;;;;;4977976;28;20084;-66
2023/01/09 05:53:11;;;;;;;12.73;5.15;;;5.60;99.90;;;;;;4977935;28;20050;-66
2023/01/09 05:55:37;;;;;;;6.97;4.47;;;5.60;99.90;;;;;;4995034;28;20038;-66
2023/01/09 05:58:03;;;;;;;8.15;4.60;;;5.60;99.90;;;;;;4977858;28;20039;-67
2023/01/09 06:00:28;;;;;;;7.88;5.07;;;5.60;99.90;;;;;;4995244;28;20078;-68
2023/01/09 06:02:54;;;;;;;13.82;5.07;;;5.60;99.90;;;;;;4977714;28;20121;-67
2023/01/09 06:05:20;;;;;;;13.10;5.18;;;5.60;99.90;;;;;;4994972;28;20517;-66
2023/01/09 06:07:45;;;;;;;13.13;2.92;;;5.60;99.90;;;;;;4995100;28;20065;-65
2023/01/09 06:10:13;;;;;;;8.32;5.35;;;5.60;99.90;;;;;;4993887;28;20117;-67
2023/01/09 06:12:39;;;;;;;7.25;4.60;;;5.70;99.90;;;;;;4977823;28;20069;-68
2023/01/09 06:15:05;;;;;;;10.15;4.70;;;7.70;99.90;;;;;;4977436;28;20129;-67
2023/01/09 06:17:31;;;;;;;6.15;3.65;;;5.70;99.90;;;;;;4977467;28;20581;-71
2023/01/09 06:19:56;;;;;;;7.78;3.85;;;6.20;99.90;;;;;;4977419;28;20041;-66
2023/01/09 06:22:22;;;;;;;7.45;3.95;;;5.70;99.90;;;;;;4977348;28;20096;-66
2023/01/09 06:24:48;;;;;;;2.53;1.98;;;5.70;99.90;;;;;;4994775;28;20038;-68
2023/01/09 06:27:13;;;;;;;5.18;3.35;;;5.70;99.90;;;;;;4961507;28;20097;-66
2023/01/09 06:29:39;;;;;;;7.75;4.22;;;5.60;99.90;;;;;;4977550;28;20081;-69
2023/01/09 06:32:05;;;;;;;11.18;4.78;;;6.30;99.90;;;;;;4977227;28;20042;-66
2023/01/09 06:34:30;;;;;;;9.82;4.28;;;5.60;99.90;;;;;;4977432;28;20047;-65
2023/01/09 06:36:56;;;;;;;7.95;4.25;;;5.70;99.90;;;;;;4994764;28;20117;-65
2023/01/09 06:39:22;;;;;;;8.10;3.80;;;5.60;99.90;;;;;;4994724;28;20099;-64
2023/01/09 06:41:47;;;;;;;9.93;4.68;;;5.60;99.90;;;;;;4994720;28;20050;-64
2023/01/09 06:44:13;;;;;;;11.85;4.75;;;5.60;99.90;;;;;;4994640;28;20045;-64
2023/01/09 06:46:39;;;;;;;8.48;4.43;;;5.60;99.90;;;;;;4994652;28;20512;-65
2023/01/09 06:49:04;;;;;;;8.35;4.13;;;5.60;99.90;;;;;;4976912;28;20112;-64
2023/01/09 06:51:30;;;;;;;6.50;3.97;;;5.60;99.90;;;;;;4994542;28;20045;-64
2023/01/09 06:53:56;;;;;;;7.30;3.95;;;5.60;99.90;;;;;;4994532;28;20096;-65
2023/01/09 06:56:21;;;;;;;6.60;3.63;;;5.60;99.90;;;;;;4994083;28;20038;-65
2023/01/09 06:58:47;;;;;;;10.00;4.20;;;5.60;99.90;;;;;;4994101;28;20046;-68
2023/01/09 07:01:12;;;;;;;7.30;3.50;;;5.60;99.90;;;;;;4976651;28;20038;-64
2023/01/09 07:03:38;;;;;;;4.88;3.10;;;5.60;99.90;;;;;;4994363;28;20038;-65
2023/01/09 07:06:04;;;;;;;4.15;3.05;;;5.50;99.90;;;;;;4993883;28;20497;-64
2023/01/09 07:08:30;;;;;;;5.53;2.55;;;5.60;99.90;;;;;;4993264;28;20121;-64
2023/01/09 07:10:56;;;;;;;6.00;2.90;;;5.60;99.90;;;;;;4993896;28;20122;-65
2023/01/09 07:13:22;;;;;;;3.97;1.95;;;5.60;99.90;;;;;;4994145;28;20092;-65
2023/01/09 07:15:48;;;;;;;7.60;2.97;;;5.50;99.90;;;;;;4994147;28;20038;-65
2023/01/09 07:18:14;;;;;;;5.57;2.60;;;5.60;99.90;;;;;;4994000;28;20436;-65
2023/01/09 07:20:40;;;;;;;4.78;2.70;;;5.50;99.90;;;;;;4976427;28;20046;-65
2023/01/09 07:23:09;;;;;;;5.35;2.72;;;5.50;99.90;;;;;;4993770;28;20081;-65
2023/01/09 07:25:35;;;;;;;5.05;2.70;;;5.70;99.90;;;;;;4976315;28;20050;-65
2023/01/09 07:28:01;;;;;;;8.05;2.83;;;5.50;99.90;;;;;;4994029;28;20469;-65
2023/01/09 07:30:26;;;;;;;3.55;2.30;;;5.50;99.90;;;;;;4993939;28;20039;-65
2023/01/09 07:32:52;;;;;;;3.95;2.33;;;5.50;99.90;;;;;;4993833;28;20477;-65
2023/01/09 07:35:17;;;;;;;4.97;2.45;;;5.40;99.90;;;;;;4976096;28;20112;-65
2023/01/09 07:37:44;;;;;;;4.70;2.33;;;5.40;99.90;;;;;;4976101;28;20050;-65
2023/01/09 07:40:10;;;;;;;7.03;1.98;;;5.30;99.90;;;;;;4993783;28;20093;-65
2023/01/09 07:42:36;;;;;;;4.90;2.17;;;5.30;99.90;;;;;;4976135;28;20039;-65
2023/01/09 07:45:02;;;;;;;3.65;1.95;;;5.20;99.90;;;;;;4976397;28;20039;-65
2023/01/09 07:47:27;;;;;;;3.60;2.13;;;5.20;99.90;;;;;;4993425;28;20046;-65
2023/01/09 07:49:53;;;;;;;4.22;2.72;;;5.20;99.90;;;;;;4993349;28;20050;-66
2023/01/09 07:52:18;;;;;;;3.40;2.15;;;5.20;99.90;;;;;;4976265;28;20046;-65
2023/01/09 07:54:44;;;;;;;2.72;1.65;;;5.30;99.90;;;;;;4993681;28;20058;-65
2023/01/09 07:57:09;;;;;;;2.78;1.52;;;5.30;99.90;;;;;;4975939;28;20051;-65
2023/01/09 07:59:35;;;;;;;4.38;2.40;;;5.30;99.90;;;;;;4993634;28;20541;-65
2023/01/09 08:02:04;;;;;;;3.33;2.30;;;5.40;99.90;;;;;;4993681;28;20395;-65
2023/01/09 08:04:30;;;;;;;3.50;1.90;;;5.30;99.90;;;;;;4993150;28;20062;-65
2023/01/09 08:06:55;;;;;;;4.80;2.10;;;5.30;99.90;;;;;;4993636;28;20125;-65
2023/01/09 08:09:21;;;;;;;7.72;2.35;;;5.30;99.90;;;;;;4993212;28;20049;-65
2023/01/09 08:11:47;;;;;;;2.85;1.90;;;5.20;99.90;;;;;;4993421;28;20038;-65
2023/01/09 08:14:12;;;;;;;7.78;2.28;;;5.20;99.90;;;;;;4975768;28;20478;-65
2023/01/09 08:16:38;;;;;;;5.80;1.98;;;5.30;99.90;;;;;;4993374;28;20129;-65
2023/01/09 08:19:04;;;;;;;3.90;2.15;;;5.20;99.90;;;;;;4995465;28;20030;-65
2023/01/09 08:21:29;;;;;;;3.65;1.90;;;5.30;99.90;;;;;;4997248;28;20154;-65
2023/01/09 08:23:55;;;;;;;2.58;1.75;;;6.10;99.90;;;;;;4997260;28;20402;-65
2023/01/09 08:26:20;;;;;;;4.35;1.88;;;5.30;99.90;;;;;;4979482;28;20046;-65
2023/01/09 08:28:47;;;;;;;3.42;1.67;;;5.30;99.90;;;;;;4979388;28;20486;-65
2023/01/09 08:31:13;;;;;;;3.47;1.60;;;5.40;99.90;;;;;;4996733;28;20413;-65
2023/01/09 08:33:39;;;;;;;3.78;1.80;;;5.40;99.90;;;;;;4997015;28;20085;-65
2023/01/09 08:36:04;;;;;;;5.85;2.25;;;5.40;99.90;;;;;;4996638;28;20478;-65
2023/01/09 08:38:30;;;;;;;5.22;1.30;;;5.50;99.90;;;;;;4996659;28;20050;-65
2023/01/09 08:40:56;;;;;;;4.53;1.77;;;5.50;99.90;;;;;;4996649;28;20034;-65
2023/01/09 08:49:00;;;;;;;3.75;1.70;;;5.60;99.90;;;;;;4996379;28;20125;-65
2023/01/09 08:51:26;;;;;;;1.60;1.10;;;5.90;99.90;;;;;;4978998;28;20126;-65
2023/01/09 08:53:52;;;;;;;1.95;1.40;;;5.60;99.90;;;;;;4996722;28;20473;-65
2023/01/09 08:56:17;;;;;;;4.10;1.63;;;5.60;99.90;;;;;;4996610;28;20054;-65
2023/01/09 08:58:43;;;;;;;6.10;1.90;;;5.70;99.90;;;;;;4979152;28;20069;-65
2023/01/09 09:01:09;;;;;;;3.22;0.98;;;5.70;99.90;;;;;;4996480;28;20042;-65
2023/01/09 09:03:34;;;;;;;5.10;1.90;;;5.70;99.90;;;;;;4978795;28;20113;-65
2023/01/09 09:06:00;;;;;;;2.97;1.30;;;5.80;99.90;;;;;;4996070;28;20121;-65
2023/01/09 09:08:26;;;;;;;3.22;1.38;;;5.80;99.90;;;;;;4996458;28;20049;-66
2023/01/09 09:10:51;;;;;;;4.97;1.50;;;5.80;99.90;;;;;;4978738;28;20645;-65
2023/01/09 09:13:17;;;;;;;2.70;1.48;;;5.80;99.90;;;;;;4996046;28;20516;-65
2023/01/09 09:15:42;;;;;;;3.35;1.60;;;5.90;99.90;;;;;;4978356;28;20042;-65
2023/01/09 09:18:08;;;;;;;1.35;1.17;;;6.00;99.90;;;;;;4978333;28;20482;-65
2023/01/09 09:20:36;;;;;;;4.68;1.38;;;6.00;99.90;;;;;;4978292;28;20070;-65
2023/01/09 09:23:02;;;;;;;6.80;1.42;;;6.00;99.90;;;;;;4995713;28;20049;-65
2023/01/09 09:25:28;;;;;;;4.07;1.35;;;6.10;99.90;;;;;;4978181;28;20042;-65
2023/01/09 09:27:55;;;;;;;3.13;1.60;;;6.10;99.90;;;;;;4978234;28;20401;-65
2023/01/09 09:30:21;;;;;;;3.55;1.40;;;6.20;99.90;;;;;;4994866;28;20050;-65
2023/01/09 09:32:48;;;;;;;8.75;1.58;;;6.20;99.90;;;;;;4995575;28;20537;-65
2023/01/09 09:35:16;;;;;;;1.92;1.08;;;6.30;99.90;;;;;;4978086;28;20109;-65
2023/01/09 09:37:42;;;;;;;2.70;1.27;;;6.30;99.90;;;;;;4995690;28;20046;-65
2023/01/09 09:40:21;;;;;;;4.05;1.10;;;6.30;99.90;;;;;;4995621;28;20074;-65
2023/01/09 09:46:04;;;;;;;5.68;1.20;;;6.40;99.90;;;;;;4995758;28;20046;-65
2023/01/09 09:48:36;;;;;;;2.53;1.20;;;6.40;99.90;;;;;;4978103;28;20117;-65
2023/01/09 09:51:20;;;;;;;2.45;1.15;;;6.40;99.90;;;;;;4977966;28;20390;-65
2023/01/09 09:54:08;;;;;;;2.28;1.15;;;6.40;99.90;;;;;;4995353;28;20042;-65
2023/01/09 09:56:45;;;;;;;2.47;1.15;;;6.40;99.90;;;;;;4978006;28;20057;-65
2023/01/09 09:59:21;;;;;;;4.32;2.05;;;6.40;99.90;;;;;;4995620;28;20501;-65
2023/01/09 10:01:57;;;;;;;3.13;1.30;;;7.40;99.90;;;;;;4995579;28;20038;-65
2023/01/09 10:04:26;;;;;;;1.65;1.00;;;6.40;99.90;;;;;;4961461;28;20054;-65
2023/01/09 10:06:57;;;;;;;7.97;1.70;;;6.40;99.90;;;;;;4995444;28;20050;-65
2023/01/09 10:09:41;;;;;;;2.65;1.70;;;6.50;99.90;;;;;;4993877;28;20054;-65
2023/01/09 10:12:10;;;;;;;4.50;1.40;;;6.50;99.90;;;;;;4977934;28;20120;-65
2023/01/09 10:14:36;;;;;;;3.60;1.55;;;6.60;99.90;;;;;;4977549;28;20050;-65
2023/01/09 10:17:13;;;;;;;2.28;1.33;;;6.60;99.90;;;;;;4977534;28;20524;-65
2023/01/09 10:20:18;;;;;;;4.18;2.88;;;6.70;99.90;;;;;;4994961;28;20042;-65
2023/01/09 10:23:12;;;;;;;5.38;1.50;;;6.70;99.90;;;;;;4994794;28;20092;-65
2023/01/09 10:26:05;;;;;;;5.50;1.23;;;6.70;99.90;;;;;;4977415;28;20061;-66
2023/01/09 10:28:52;;;;;;;1.40;1.13;;;6.70;99.90;;;;;;4994687;28;20038;-65
2023/01/09 10:31:33;;;;;;;3.50;1.35;;;6.70;99.90;;;;;;4994660;28;20078;-65
2023/01/09 10:34:19;;;;;;;4.90;1.20;;;6.80;99.90;;;;;;4994961;28;20034;-65
2023/01/09 10:37:03;;;;;;;3.35;1.58;;;6.70;99.90;;;;;;4994782;28;20324;-65
2023/01/09 10:39:51;;;;;;;4.45;1.23;;;6.70;99.90;;;;;;4977139;28;20078;-65
2023/01/09 10:42:32;;;;;;;1.92;1.23;;;6.80;99.90;;;;;;4976369;28;20053;-65
2023/01/09 10:45:28;;;;;;;4.47;1.38;;;6.80;99.90;;;;;;4994704;28;20049;-65
2023/01/09 10:48:02;;;;;;;1.30;0.98;;;6.80;99.90;;;;;;4994607;28;20393;-65
2023/01/09 10:50:33;;;;;;;2.45;1.30;;;6.90;99.90;;;;;;4976929;28;20050;-66
2023/01/09 10:53:03;;;;;;;4.38;1.15;;;6.80;99.90;;;;;;4994308;28;20042;-66
2023/01/09 10:55:33;;;;;;;2.67;1.25;;;6.90;99.90;;;;;;4976813;28;20045;-65
2023/01/09 10:58:03;;;;;;;2.95;1.38;;;6.90;99.90;;;;;;4994130;28;20038;-65
2023/01/09 11:00:28;;;;;;;1.60;1.10;;;6.90;99.90;;;;;;4976992;28;20097;-65
2023/01/09 11:02:54;;;;;;;1.65;0.90;;;6.90;99.90;;;;;;4994397;28;20038;-65
2023/01/09 11:05:23;;;;;;;3.33;1.27;;;6.90;99.90;;;;;;4994004;28;20128;-66
2023/01/09 11:08:14;;;;;;;6.72;1.55;;;6.90;99.90;;;;;;4976845;28;20050;-65
2023/01/09 11:10:45;;;;;;;5.07;1.50;;;6.90;99.90;;;;;;4994237;28;20042;-65
2023/01/09 11:13:23;;;;;;;1.40;1.05;;;6.90;99.90;;;;;;4993978;28;20097;-65
2023/01/09 11:16:15;;;;;;;1.85;1.05;;;6.90;99.90;;;;;;4992746;28;20046;-65
2023/01/09 11:18:50;;;;;;;2.90;1.00;;;6.90;99.90;;;;;;4976439;28;20081;-65
2023/01/09 11:21:25;;;;;;;7.78;1.83;;;6.90;99.90;;;;;;4993806;28;20038;-65
2023/01/09 11:23:51;;;;;;;1.60;1.10;;;6.90;99.90;;;;;;4976409;28;20524;-66
2023/01/09 11:26:25;;;;;;;3.60;1.17;;;6.90;99.90;;;;;;4993974;28;20038;-66
2023/01/09 11:29:05;;;;;;;1.83;1.33;;;6.90;99.90;;;;;;4976354;28;20476;-69
2023/01/09 11:31:31;;;;;;;2.15;1.38;;;7.10;99.90;;;;;;4976220;28;20137;-65
2023/01/09 11:33:57;;;;;;;2.45;1.08;;;7.10;99.90;;;;;;4993936;28;20494;-65
2023/01/09 11:36:24;;;;;;;4.28;1.75;;;7.00;99.90;;;;;;4993850;28;20042;-65
2023/01/09 11:38:58;;;;;;;2.25;1.30;;;7.00;99.90;;;;;;4976169;28;20474;-65
2023/01/09 11:41:33;;;;;;;2.00;1.40;;;7.00;99.90;;;;;;4993474;28;20034;-64
2023/01/09 11:44:01;;;;;;;3.10;1.50;;;7.00;99.90;;;;;;4993805;28;20074;-64
2023/01/09 11:46:39;;;;;;;2.60;1.50;;;7.10;99.90;;;;;;4993685;28;20038;-64
2023/01/09 11:49:14;;;;;;;3.70;1.58;;;7.10;99.90;;;;;;4993494;28;20038;-64
2023/01/09 11:51:41;;;;;;;2.63;1.63;;;7.10;99.90;;;;;;4993742;28;20046;-64
2023/01/09 11:54:16;;;;;;;2.75;1.50;;;7.10;99.90;;;;;;4995988;28;20046;-65
2023/01/09 11:56:43;;;;;;;3.10;1.17;;;7.10;99.90;;;;;;4980231;28;20061;-64
2023/01/09 11:59:14;;;;;;;1.77;1.27;;;7.10;99.90;;;;;;4997833;28;20041;-65
2023/01/09 12:01:58;;;;;;;5.10;1.75;;;7.70;99.90;;;;;;4980281;28;20049;-64
2023/01/09 12:04:36;;;;;;;1.98;1.38;;;7.10;99.90;;;;;;4997196;28;20125;-64
2023/01/09 12:07:23;;;;;;;2.22;1.27;;;7.20;99.90;;;;;;4996446;28;20100;-65
2023/01/09 12:10:21;;;;;;;3.30;1.75;;;7.10;99.90;;;;;;4997652;28;20046;-64
2023/01/09 12:12:59;;;;;;;6.45;1.80;;;7.20;99.90;;;;;;4992997;28;20050;-64
2023/01/09 12:15:31;;;;;;;2.50;1.50;;;7.20;99.90;;;;;;4997443;28;20053;-65
2023/01/09 12:17:57;;;;;;;6.20;1.52;;;7.20;99.90;;;;;;4997062;28;20088;-65
2023/01/09 12:20:46;;;;;;;4.55;1.58;;;7.20;99.90;;;;;;4997326;28;20074;-65
2023/01/09 12:23:24;;;;;;;4.55;1.55;;;7.20;99.90;;;;;;4979619;28;20042;-65
2023/01/09 12:26:23;;;;;;;2.78;1.60;;;7.20;99.90;;;;;;4997337;28;20042;-65
2023/01/09 12:28:57;;;;;;;3.55;1.80;;;7.30;99.90;;;;;;4964805;28;20513;-65
2023/01/09 12:31:30;;;;;;;2.60;1.45;;;7.20;99.90;;;;;;4979475;28;20058;-65
2023/01/09 12:34:19;;;;;;;2.28;1.50;;;7.30;99.90;;;;;;4997219;28;20404;-65
2023/01/09 12:37:08;;;;;;;5.38;2.15;;;7.30;99.90;;;;;;4997040;28;20042;-65
2023/01/09 12:40:00;;;;;;;5.82;1.67;;;7.30;99.90;;;;;;4979597;28;20046;-64
2023/01/09 12:42:44;;;;;;;2.88;1.80;;;7.30;99.90;;;;;;4996967;28;20034;-65
2023/01/09 12:45:36;;;;;;;3.00;1.70;;;7.40;99.90;;;;;;4996951;28;20120;-65
2023/01/09 12:48:39;;;;;;;5.88;1.58;;;7.30;99.90;;;;;;4996867;28;20367;-65
2023/01/09 12:51:14;;;;;;;3.72;1.98;;;7.30;99.90;;;;;;4979120;28;20043;-65
2023/01/09 12:53:48;;;;;;;3.70;2.10;;;7.30;99.90;;;;;;4979047;28;20046;-65
2023/01/09 12:56:19;;;;;;;4.38;2.10;;;7.30;99.90;;;;;;4996669;28;20045;-65
2023/01/09 12:59:05;;;;;;;4.85;2.28;;;7.40;99.90;;;;;;4996728;28;20070;-65
2023/01/09 13:01:37;;;;;;;2.72;1.60;;;7.40;99.90;;;;;;4996622;28;20132;-65
2023/01/09 13:04:23;;;;;;;2.78;1.73;;;7.40;99.90;;;;;;4996282;28;20489;-65
2023/01/09 13:06:56;;;;;;;4.43;2.00;;;7.40;99.90;;;;;;4995988;28;20046;-65
2023/01/09 13:09:35;;;;;;;3.67;2.08;;;7.40;99.90;;;;;;4996482;28;20236;-64
2023/01/09 13:12:11;;;;;;;4.60;2.05;;;7.40;99.90;;;;;;4996473;28;20421;-65
2023/01/09 13:14:46;;;;;;;5.68;2.08;;;7.40;99.90;;;;;;4978704;28;20054;-65
2023/01/09 13:17:18;;;;;;;3.03;2.00;;;7.40;99.90;;;;;;4978710;28;20042;-65
2023/01/09 13:19:45;;;;;;;5.10;2.30;;;7.40;99.90;;;;;;4996056;28;20042;-64
2023/01/09 13:22:11;;;;;;;3.67;2.05;;;7.40;99.90;;;;;;4996316;28;20427;-65
2023/01/09 13:25:01;;;;;;;2.92;1.88;;;7.40;99.90;;;;;;4995921;28;20044;-64
2023/01/09 13:27:33;;;;;;;5.22;2.28;;;7.40;99.90;;;;;;4996175;28;20117;-65
2023/01/09 13:30:11;;;;;;;3.95;1.90;;;7.40;99.90;;;;;;4996190;28;20042;-65